createdAt,value
2019-05-22T00:01:10.942Z,25.57
2019-05-22T00:03:50.578Z,26.20
2019-05-22T00:06:26.761Z,26.73
2019-05-22T00:08:58.500Z,27.03
2019-05-22T00:11:29.844Z,26.63
2019-05-22T00:14:00.226Z,27.50
2019-05-22T00:16:34.010Z,28.37
2019-05-22T00:19:06.348Z,28.67
2019-05-22T00:21:38.449Z,26.73
2019-05-22T00:24:10.559Z,26.93
2019-05-22T00:26:43.664Z,27.63
2019-05-22T00:29:15.734Z,27.33
2019-05-22T00:31:47.962Z,26.97
2019-05-22T00:34:20.881Z,28.77
2019-05-22T00:36:51.367Z,26.73
2019-05-22T00:39:21.986Z,27.23
2019-05-22T00:41:53.027Z,25.67
2019-05-22T00:44:25.574Z,27.13
2019-05-22T00:46:55.931Z,25.20
2019-05-22T00:49:27.134Z,23.90
2019-05-22T00:52:19.763Z,24.87
2019-05-22T00:55:06.115Z,24.13
2019-05-22T00:57:42.734Z,24.40
2019-05-22T01:00:21.820Z,23.30
2019-05-22T01:02:54.342Z,19.87
2019-05-22T01:05:25.210Z,18.87
2019-05-22T01:07:56.761Z,17.77
2019-05-22T01:10:30.141Z,14.43
2019-05-22T01:13:04.230Z,14.63
2019-05-22T01:15:35.638Z,13.73
2019-05-22T01:18:10.070Z,12.47
2019-05-22T01:20:41.955Z,11.33
2019-05-22T01:23:17.849Z,11.70
2019-05-22T01:25:48.479Z,10.70
2019-05-22T01:28:19.595Z,11.17
2019-05-22T01:31:00.402Z,10.50
2019-05-22T01:33:35.787Z,10.77
2019-05-22T01:36:17.010Z,10.57
2019-05-22T01:38:47.379Z,10.50
2019-05-22T01:41:25.305Z,10.47
2019-05-22T01:43:59.541Z,10.17
2019-05-22T01:46:34.251Z,9.40
2019-05-22T01:49:08.286Z,10.03
2019-05-22T01:51:39.238Z,10.47
2019-05-22T01:54:11.151Z,9.37
2019-05-22T01:56:41.793Z,9.70
2019-05-22T01:59:13.513Z,9.33
2019-05-22T02:01:45.022Z,8.77
2019-05-22T02:04:17.217Z,9.30
2019-05-22T02:06:48.461Z,8.60
2019-05-22T02:09:33.594Z,9.07
2019-05-22T02:12:10.185Z,8.77
2019-05-22T02:14:44.446Z,9.07
2019-05-22T02:17:16.078Z,9.00
2019-05-22T02:19:48.197Z,8.07
2019-05-22T02:22:18.738Z,9.03
2019-05-22T02:24:51.760Z,8.70
2019-05-22T02:27:23.942Z,8.97
2019-05-22T02:29:55.474Z,8.20
2019-05-22T02:32:28.431Z,8.33
2019-05-22T02:34:58.782Z,7.83
2019-05-22T02:37:30.091Z,8.80
2019-05-22T02:40:03.280Z,8.57
2019-05-22T02:42:34.224Z,7.40
2019-05-22T02:45:07.682Z,8.60
2019-05-22T02:47:38.694Z,7.60
2019-05-22T02:50:09.276Z,8.70
2019-05-22T02:52:40.396Z,8.30
2019-05-22T02:55:11.326Z,7.70
2019-05-22T02:57:42.315Z,8.07
2019-05-22T03:00:14.278Z,8.10
2019-05-22T03:02:50.891Z,7.37
2019-05-22T03:05:22.679Z,7.97
2019-05-22T03:07:53.611Z,8.73
2019-05-22T03:10:26.582Z,7.70
2019-05-22T03:12:58.179Z,8.77
2019-05-22T03:15:29.717Z,9.73
2019-05-22T03:18:02.799Z,10.43
2019-05-22T03:20:35.771Z,11.50
2019-05-22T03:23:35.462Z,11.67
2019-05-22T03:26:10.849Z,13.33
2019-05-22T03:28:42.079Z,15.57
2019-05-22T03:31:15.286Z,14.33
2019-05-22T03:33:47.150Z,14.13
2019-05-22T03:36:20.791Z,14.93
2019-05-22T03:38:51.599Z,14.40
2019-05-22T03:41:22.925Z,13.40
2019-05-22T03:43:55.380Z,13.40
2019-05-22T03:46:35.825Z,12.40
2019-05-22T03:49:07.889Z,13.07
2019-05-22T03:51:38.900Z,12.80
2019-05-22T03:54:11.136Z,12.90
2019-05-22T03:56:42.288Z,12.57
2019-05-22T03:59:13.445Z,12.53
2019-05-22T04:01:44.780Z,12.83
2019-05-22T04:04:32.649Z,12.20
2019-05-22T04:07:03.762Z,12.13
2019-05-22T04:09:34.515Z,12.50
2019-05-22T04:12:06.296Z,12.63
2019-05-22T04:14:37.734Z,13.27
2019-05-22T04:17:10.665Z,12.87
2019-05-22T04:19:49.457Z,13.60
2019-05-22T04:22:14.173Z,13.20
2019-05-22T04:24:46.588Z,13.57
2019-05-22T04:27:17.638Z,13.40
2019-05-22T04:29:49.824Z,13.77
2019-05-22T04:32:31.623Z,13.63
2019-05-22T04:35:03.749Z,13.97
2019-05-22T04:37:34.262Z,13.93
2019-05-22T04:40:52.954Z,13.07
2019-05-22T04:43:30.735Z,13.33
2019-05-22T04:46:03.455Z,13.20
2019-05-22T04:48:36.272Z,12.93
2019-05-22T04:51:26.915Z,13.00
2019-05-22T04:53:57.933Z,12.30
2019-05-22T04:56:29.661Z,13.47
2019-05-22T04:59:03.405Z,12.63
2019-05-22T05:01:34.820Z,13.83
2019-05-22T05:04:06.662Z,13.70
2019-05-22T05:06:37.502Z,14.73
2019-05-22T05:09:11.501Z,13.57
2019-05-22T05:11:42.196Z,13.93
2019-05-22T05:14:12.766Z,14.93
2019-05-22T05:16:43.470Z,15.03
2019-05-22T05:19:13.894Z,15.17
2019-05-22T05:21:44.331Z,14.60
2019-05-22T05:24:14.744Z,13.80
2019-05-22T05:26:47.389Z,14.00
2019-05-22T05:29:29.332Z,13.90
2019-05-22T05:32:00.671Z,13.97
2019-05-22T05:34:52.760Z,12.43
2019-05-22T05:37:25.060Z,9.10
2019-05-22T05:40:29.540Z,8.40
2019-05-22T05:43:00.991Z,8.70
2019-05-22T05:45:33.580Z,9.80
2019-05-22T05:48:07.187Z,8.63
2019-05-22T05:50:40.582Z,8.60
2019-05-22T05:53:16.688Z,9.00
2019-05-22T05:56:14.902Z,8.23
2019-05-22T05:58:45.713Z,8.90
2019-05-22T06:01:21.844Z,8.50
2019-05-22T06:03:52.956Z,7.80
2019-05-22T06:07:12.044Z,8.50
2019-05-22T06:09:42.762Z,8.80
2019-05-22T06:12:13.882Z,8.13
2019-05-22T06:14:44.250Z,7.80
2019-05-22T06:18:07.303Z,8.23
2019-05-22T06:20:38.348Z,8.77
2019-05-22T06:23:50.623Z,9.53
2019-05-22T06:27:18.682Z,9.30
2019-05-22T06:30:13.301Z,9.17
2019-05-22T06:33:25.386Z,9.20
2019-05-22T06:35:56.995Z,9.20
2019-05-22T06:38:55.391Z,9.07
2019-05-22T06:41:31.352Z,9.67
2019-05-22T06:44:45.487Z,9.70
2019-05-22T06:47:22.903Z,9.23
2019-05-22T06:49:59.175Z,10.00
2019-05-22T06:52:29.681Z,11.03
2019-05-22T06:55:00.220Z,9.90
2019-05-22T06:57:34.891Z,10.33
2019-05-22T07:00:19.987Z,10.70
2019-05-22T07:02:50.988Z,12.50
2019-05-22T07:05:21.965Z,11.27
2019-05-22T07:07:52.427Z,11.70
2019-05-22T07:10:24.781Z,11.40
2019-05-22T07:12:55.295Z,10.80
2019-05-22T07:15:34.125Z,12.00
2019-05-22T07:18:07.150Z,12.57
2019-05-22T07:20:39.771Z,9.70
2019-05-22T07:23:12.936Z,8.77
2019-05-22T07:25:44.326Z,8.83
2019-05-22T07:28:16.970Z,8.57
2019-05-22T07:30:48.764Z,8.03
2019-05-22T07:33:21.067Z,7.87
2019-05-22T07:36:08.479Z,8.03
2019-05-22T07:38:24.365Z,7.50
2019-05-22T07:40:55.496Z,8.00
2019-05-22T07:43:26.543Z,7.83
2019-05-22T07:45:57.620Z,6.40
2019-05-22T07:48:29.998Z,7.50
2019-05-22T07:51:04.604Z,6.50
2019-05-22T07:53:35.097Z,5.93
2019-05-22T07:56:09.793Z,5.27
2019-05-22T07:58:41.150Z,4.70
2019-05-22T08:01:12.043Z,4.90
2019-05-22T08:03:45.484Z,5.33
2019-05-22T08:06:16.491Z,4.60
2019-05-22T08:08:47.441Z,4.60
2019-05-22T08:11:19.634Z,5.03
2019-05-22T08:13:51.457Z,5.93
2019-05-22T08:16:22.218Z,6.60
2019-05-22T08:18:52.710Z,7.07
2019-05-22T08:21:23.845Z,6.87
2019-05-22T08:23:55.690Z,6.77
2019-05-22T08:26:26.988Z,6.17
2019-05-22T08:28:57.956Z,6.97
2019-05-22T08:31:28.350Z,6.07
2019-05-22T08:33:59.281Z,6.17
2019-05-22T08:36:30.672Z,7.00
2019-05-22T08:39:02.264Z,6.53
2019-05-22T08:41:36.992Z,5.97
2019-05-22T08:44:17.448Z,6.10
2019-05-22T08:46:40.127Z,6.23
2019-05-22T08:49:11.228Z,6.27
2019-05-22T08:51:41.687Z,6.33
2019-05-22T08:54:14.106Z,6.90
2019-05-22T08:56:48.417Z,5.77
2019-05-22T08:59:20.343Z,5.77
2019-05-22T09:01:51.365Z,5.40
2019-05-22T09:04:22.239Z,5.93
2019-05-22T09:06:52.593Z,6.00
2019-05-22T09:09:23.636Z,5.27
2019-05-22T09:11:54.354Z,6.20
2019-05-22T09:14:24.717Z,6.30
2019-05-22T09:16:56.145Z,6.77
2019-05-22T09:19:26.484Z,7.33
2019-05-22T09:21:57.772Z,6.87
2019-05-22T09:24:28.776Z,6.93
2019-05-22T09:27:02.771Z,7.17
2019-05-22T09:29:32.305Z,6.50
2019-05-22T09:32:03.040Z,6.83
2019-05-22T09:34:34.269Z,6.33
2019-05-22T09:37:04.749Z,6.97
2019-05-22T09:39:35.197Z,7.00
2019-05-22T09:42:05.667Z,6.70
2019-05-22T09:44:36.075Z,6.97
2019-05-22T09:47:08.348Z,7.23
2019-05-22T09:49:39.388Z,6.97
2019-05-22T09:52:10.606Z,6.93
2019-05-22T09:54:42.275Z,5.80
2019-05-22T09:57:12.810Z,5.50
2019-05-22T09:59:43.818Z,6.53
2019-05-22T10:02:14.526Z,7.50
2019-05-22T10:04:44.990Z,8.13
2019-05-22T10:07:15.526Z,7.90
2019-05-22T10:09:46.246Z,6.60
2019-05-22T10:12:16.726Z,6.33
2019-05-22T10:14:47.388Z,6.57
2019-05-22T10:17:18.103Z,6.23
2019-05-22T10:19:48.552Z,6.00
2019-05-22T10:22:19.748Z,6.43
2019-05-22T10:24:51.874Z,6.60
2019-05-22T10:27:22.871Z,7.73
2019-05-22T10:29:53.299Z,8.53
2019-05-22T10:32:23.997Z,7.30
2019-05-22T10:34:57.704Z,7.53
2019-05-22T10:37:28.016Z,7.30
2019-05-22T10:39:59.096Z,6.47
2019-05-22T10:42:30.302Z,6.47
2019-05-22T10:45:01.199Z,6.53
2019-05-22T10:47:31.728Z,6.97
2019-05-22T10:50:02.844Z,7.03
2019-05-22T10:52:33.869Z,7.03
2019-05-22T10:55:06.131Z,6.72
2019-05-22T10:57:40.435Z,6.55
2019-05-22T11:00:12.164Z,6.70
2019-05-22T11:02:44.108Z,5.90
2019-05-22T11:05:15.314Z,7.10
2019-05-22T11:07:46.166Z,7.57
2019-05-22T11:10:18.356Z,7.03
2019-05-22T11:12:49.249Z,7.20
2019-05-22T11:15:20.248Z,7.65
2019-05-22T11:17:53.515Z,7.97
2019-05-22T11:20:25.343Z,8.30
2019-05-22T11:22:55.941Z,8.90
2019-05-22T11:25:26.528Z,8.83
2019-05-22T11:27:56.885Z,8.80
2019-05-22T11:30:27.720Z,10.00
2019-05-22T11:32:58.945Z,8.30
2019-05-22T11:35:30.413Z,8.60
2019-05-22T11:38:03.103Z,9.53
2019-05-22T11:40:34.067Z,8.93
2019-05-22T11:43:04.926Z,8.70
2019-05-22T11:45:35.820Z,9.57
2019-05-22T11:48:06.344Z,8.63
2019-05-22T11:50:38.075Z,7.93
2019-05-22T11:53:08.781Z,7.57
2019-05-22T11:55:45.422Z,6.80
2019-05-22T11:58:11.755Z,6.10
2019-05-22T12:00:42.465Z,6.90
2019-05-22T12:03:12.969Z,6.73
2019-05-22T12:05:45.163Z,7.77
2019-05-22T12:08:15.627Z,6.43
2019-05-22T12:10:47.232Z,6.20
2019-05-22T12:13:18.223Z,7.45
2019-05-22T12:15:48.759Z,6.33
2019-05-22T12:18:20.300Z,6.50
2019-05-22T12:20:50.913Z,5.83
2019-05-22T12:23:21.523Z,6.53
2019-05-22T12:25:52.274Z,5.90
2019-05-22T12:28:22.802Z,6.80
2019-05-22T12:30:53.682Z,6.83
2019-05-22T12:33:24.321Z,6.73
2019-05-22T12:35:54.810Z,6.50
2019-05-22T12:38:27.135Z,7.57
2019-05-22T12:40:58.254Z,6.50
2019-05-22T12:43:30.385Z,7.30
2019-05-22T12:46:00.874Z,7.78
2019-05-22T12:48:31.826Z,7.30
2019-05-22T12:51:04.838Z,7.37
2019-05-22T12:53:36.754Z,8.40
2019-05-22T12:56:07.822Z,8.03
2019-05-22T12:58:38.534Z,7.33
2019-05-22T13:01:09.111Z,7.70
2019-05-22T13:03:39.988Z,6.30
2019-05-22T13:06:11.198Z,7.50
2019-05-22T13:08:43.004Z,8.87
2019-05-22T13:11:14.233Z,8.90
2019-05-22T13:13:45.352Z,8.03
2019-05-22T13:16:16.945Z,7.80
2019-05-22T13:18:48.677Z,8.53
2019-05-22T13:21:22.381Z,8.37
2019-05-22T13:23:53.213Z,7.17
2019-05-22T13:26:25.182Z,7.00
2019-05-22T13:28:56.469Z,6.47
2019-05-22T13:31:27.227Z,8.40
2019-05-22T13:33:58.786Z,7.63
2019-05-22T13:36:29.579Z,8.93
2019-05-22T13:39:00.353Z,7.97
2019-05-22T13:41:30.861Z,8.17
2019-05-22T13:44:01.812Z,8.67
2019-05-22T13:46:32.399Z,8.60
2019-05-22T13:49:02.818Z,8.80
2019-05-22T13:51:33.725Z,8.77
2019-05-22T13:54:05.287Z,9.50
2019-05-22T13:56:36.421Z,8.07
2019-05-22T13:59:07.466Z,8.03
2019-05-22T14:01:37.973Z,8.63
2019-05-22T14:04:08.629Z,7.80
2019-05-22T14:06:39.456Z,8.30
2019-05-22T14:09:13.703Z,8.70
2019-05-22T14:11:46.988Z,9.83
2019-05-22T14:14:17.848Z,8.43
2019-05-22T14:16:49.458Z,9.20
2019-05-22T14:19:20.056Z,9.27
2019-05-22T14:21:51.999Z,8.07
2019-05-22T14:24:22.794Z,7.80
2019-05-22T14:26:53.315Z,8.10
2019-05-22T14:29:23.798Z,7.83
2019-05-22T14:31:55.396Z,7.80
2019-05-22T14:34:26.334Z,7.37
2019-05-22T14:36:57.472Z,8.33
2019-05-22T14:39:29.404Z,8.17
2019-05-22T14:41:59.842Z,8.00
2019-05-22T14:44:34.045Z,7.70
2019-05-22T14:47:13.751Z,8.07
2019-05-22T14:49:36.656Z,7.90
2019-05-22T14:52:07.397Z,7.87
2019-05-22T14:54:37.997Z,7.03
2019-05-22T14:57:08.810Z,7.90
2019-05-22T14:59:40.341Z,8.67
2019-05-22T15:02:11.467Z,8.30
2019-05-22T15:04:42.720Z,9.43
2019-05-22T15:07:13.266Z,7.57
2019-05-22T15:09:43.709Z,8.43
2019-05-22T15:12:14.280Z,7.43
2019-05-22T15:14:45.962Z,7.80
2019-05-22T15:17:31.948Z,7.83
2019-05-22T15:19:49.523Z,7.73
2019-05-22T15:22:19.941Z,7.67
2019-05-22T15:24:50.976Z,7.67
2019-05-22T15:27:21.569Z,8.17
2019-05-22T15:29:52.015Z,8.10
2019-05-22T15:32:22.987Z,7.90
2019-05-22T15:34:53.657Z,7.30
2019-05-22T15:37:25.126Z,7.83
2019-05-22T15:39:56.349Z,8.63
2019-05-22T15:42:36.334Z,8.03
2019-05-22T15:45:09.645Z,7.30
2019-05-22T15:47:54.365Z,6.87
2019-05-22T15:50:17.629Z,6.80
2019-05-22T15:52:54.510Z,7.20
2019-05-22T15:55:26.353Z,7.47
2019-05-22T15:57:59.475Z,7.80
2019-05-22T16:00:33.800Z,6.80
2019-05-22T16:03:11.733Z,7.30
2019-05-22T16:05:43.505Z,6.10
2019-05-22T16:08:15.657Z,6.47
2019-05-22T16:10:48.092Z,6.63
2019-05-22T16:13:22.552Z,6.87
2019-05-22T16:15:54.453Z,6.00
2019-05-22T16:18:28.318Z,5.47
2019-05-22T16:21:02.619Z,5.53
2019-05-22T16:23:35.508Z,5.93
2019-05-22T16:26:07.057Z,5.80
2019-05-22T16:28:40.653Z,4.80
2019-05-22T16:31:12.361Z,5.37
2019-05-22T16:33:45.041Z,5.40
2019-05-22T16:36:15.897Z,5.70
2019-05-22T16:38:47.494Z,5.33
2019-05-22T16:41:18.673Z,5.20
2019-05-22T16:43:50.548Z,5.30
2019-05-22T16:46:23.190Z,5.03
2019-05-22T16:48:54.046Z,5.93
2019-05-22T16:51:25.898Z,5.07
2019-05-22T16:54:01.824Z,5.00
2019-05-22T16:56:32.490Z,5.67
2019-05-22T16:59:04.588Z,4.40
2019-05-22T17:01:56.138Z,4.73
2019-05-22T17:04:09.596Z,4.83
2019-05-22T17:06:42.825Z,5.13
2019-05-22T17:09:15.580Z,5.10
2019-05-22T17:11:46.891Z,4.67
2019-05-22T17:14:19.576Z,4.43
2019-05-22T17:16:51.377Z,4.87
2019-05-22T17:19:27.215Z,4.50
2019-05-22T17:21:54.503Z,4.83
2019-05-22T17:24:25.926Z,5.03
2019-05-22T17:26:57.231Z,4.90
2019-05-22T17:29:28.337Z,4.80
2019-05-22T17:31:59.755Z,5.40
2019-05-22T17:34:34.355Z,5.30
2019-05-22T17:37:09.388Z,5.17
2019-05-22T17:39:41.592Z,4.97
2019-05-22T17:42:15.788Z,4.70
2019-05-22T17:44:49.453Z,4.77
2019-05-22T17:47:21.658Z,4.83
2019-05-22T17:49:53.154Z,5.00
2019-05-22T17:52:24.236Z,5.40
2019-05-22T17:54:54.778Z,4.97
2019-05-22T17:57:25.203Z,5.00
2019-05-22T17:59:57.013Z,5.90
2019-05-22T18:02:34.987Z,5.13
2019-05-22T18:05:07.640Z,5.13
2019-05-22T18:07:38.632Z,5.67
2019-05-22T18:10:10.141Z,5.70
2019-05-22T18:12:41.770Z,6.77
2019-05-22T18:15:14.452Z,7.50
2019-05-22T18:17:45.531Z,7.03
2019-05-22T18:20:18.656Z,7.53
2019-05-22T18:22:49.104Z,7.70
2019-05-22T18:25:20.725Z,7.53
2019-05-22T18:27:53.263Z,7.10
2019-05-22T18:30:25.737Z,7.57
2019-05-22T18:32:56.649Z,7.83
2019-05-22T18:35:27.173Z,7.73
2019-05-22T18:37:57.578Z,8.00
2019-05-22T18:40:27.989Z,7.87
2019-05-22T18:42:58.457Z,8.70
2019-05-22T18:45:29.885Z,8.37
2019-05-22T18:48:00.466Z,8.83
2019-05-22T18:50:33.532Z,8.83
2019-05-22T18:53:04.464Z,7.97
2019-05-22T18:55:34.968Z,9.73
2019-05-22T18:58:05.553Z,8.80
2019-05-22T19:00:36.555Z,8.50
2019-05-22T19:03:07.525Z,8.93
2019-05-22T19:05:38.285Z,9.17
2019-05-22T19:08:08.625Z,10.40
2019-05-22T19:10:39.171Z,9.47
2019-05-22T19:13:09.673Z,10.53
2019-05-22T19:15:40.372Z,10.80
2019-05-22T19:18:11.187Z,10.13
2019-05-22T19:20:42.093Z,10.20
2019-05-22T19:23:13.487Z,10.67
2019-05-22T19:25:43.950Z,11.30
2019-05-22T19:28:14.544Z,11.53
2019-05-22T19:30:45.001Z,11.60
2019-05-22T19:33:15.643Z,11.67
2019-05-22T19:35:46.035Z,12.17
2019-05-22T19:38:16.368Z,12.77
2019-05-22T19:40:47.516Z,13.47
2019-05-22T19:43:17.983Z,13.60
2019-05-22T19:45:48.490Z,13.23
2019-05-22T19:48:19.337Z,12.80
2019-05-22T19:50:50.840Z,12.93
2019-05-22T19:53:22.748Z,12.43
2019-05-22T19:55:53.572Z,12.90
2019-05-22T19:58:25.513Z,13.20
2019-05-22T20:00:56.138Z,13.33
2019-05-22T20:03:26.413Z,12.23
2019-05-22T20:05:57.234Z,13.00
2019-05-22T20:08:27.655Z,11.93
2019-05-22T20:10:58.681Z,11.87
2019-05-22T20:13:29.206Z,12.87
2019-05-22T20:15:59.634Z,11.20
2019-05-22T20:18:29.998Z,12.40
2019-05-22T20:21:02.837Z,12.13
2019-05-22T20:23:36.415Z,13.47
2019-05-22T20:26:07.647Z,12.57
2019-05-22T20:28:39.502Z,13.97
2019-05-22T20:31:11.155Z,12.70
2019-05-22T20:33:41.914Z,13.97
2019-05-22T20:36:12.278Z,15.77
2019-05-22T20:38:42.702Z,18.63
2019-05-22T20:41:13.761Z,17.20
2019-05-22T20:43:44.511Z,18.70
2019-05-22T20:46:17.061Z,18.13
2019-05-22T20:48:48.240Z,18.53
2019-05-22T20:51:19.776Z,18.80
2019-05-22T20:53:54.611Z,19.17
2019-05-22T20:56:24.752Z,19.23
2019-05-22T20:58:55.108Z,19.50
2019-05-22T21:01:25.708Z,20.27
2019-05-22T21:03:57.348Z,20.67
2019-05-22T21:06:28.878Z,19.10
2019-05-22T21:08:59.952Z,19.83
2019-05-22T21:11:31.656Z,19.20
2019-05-22T21:14:03.116Z,19.13
2019-05-22T21:16:34.596Z,19.30
2019-05-22T21:19:06.969Z,20.50
2019-05-22T21:21:37.400Z,19.43
2019-05-22T21:24:11.714Z,20.87
2019-05-22T21:26:41.220Z,20.30
2019-05-22T21:29:12.123Z,19.80
2019-05-22T21:31:42.539Z,20.77
2019-05-22T21:34:13.570Z,20.70
2019-05-22T21:36:44.671Z,20.10
2019-05-22T21:39:16.781Z,20.60
2019-05-22T21:41:47.370Z,20.23
2019-05-22T21:44:18.226Z,20.67
2019-05-22T21:46:48.662Z,21.33
2019-05-22T21:49:19.284Z,21.03
2019-05-22T21:51:50.915Z,19.37
2019-05-22T21:54:21.339Z,20.93
2019-05-22T21:56:52.075Z,19.97
2019-05-22T21:59:22.516Z,21.30
2019-05-22T22:01:58.824Z,21.33
2019-05-22T22:04:32.799Z,20.80
2019-05-22T22:07:04.392Z,20.93
2019-05-22T22:09:36.493Z,21.47
2019-05-22T22:12:09.064Z,22.00
2019-05-22T22:14:39.901Z,22.10
2019-05-22T22:17:12.286Z,20.63
2019-05-22T22:19:42.741Z,22.07
2019-05-22T22:22:16.110Z,21.53
2019-05-22T22:24:47.129Z,22.27
2019-05-22T22:27:18.413Z,22.43
2019-05-22T22:29:50.331Z,23.17
2019-05-22T22:32:22.685Z,22.37
2019-05-22T22:34:53.885Z,22.80
2019-05-22T22:37:24.691Z,22.27
2019-05-22T22:39:57.087Z,22.00
2019-05-22T22:42:31.650Z,22.53
2019-05-22T22:45:04.856Z,22.80
2019-05-22T22:47:39.114Z,20.80
2019-05-22T22:50:55.461Z,22.00
2019-05-22T22:53:27.857Z,21.80
2019-05-22T22:55:58.547Z,22.73
2019-05-22T22:58:29.806Z,22.93
2019-05-22T23:01:02.124Z,23.50
2019-05-22T23:03:32.642Z,22.67
2019-05-22T23:06:03.537Z,22.60
2019-05-22T23:08:34.644Z,21.77
2019-05-22T23:11:07.018Z,22.80
2019-05-22T23:13:38.202Z,21.87
2019-05-22T23:16:10.086Z,23.77
2019-05-22T23:19:06.255Z,20.53
2019-05-22T23:21:35.947Z,21.43
2019-05-22T23:24:05.046Z,22.10
2019-05-22T23:26:36.389Z,21.13
2019-05-22T23:29:08.427Z,21.47
2019-05-22T23:31:40.166Z,21.57
2019-05-22T23:34:11.347Z,21.67
2019-05-22T23:36:42.526Z,20.07
2019-05-22T23:39:15.045Z,20.67
2019-05-22T23:41:46.464Z,20.50
2019-05-22T23:44:19.903Z,21.07
2019-05-22T23:46:50.755Z,20.17
2019-05-22T23:49:21.278Z,19.70
2019-05-22T23:51:52.899Z,20.47
2019-05-22T23:54:23.967Z,20.83
2019-05-22T23:56:56.063Z,20.10
2019-05-22T23:59:27.795Z,20.60
